createdAt,value
2018-01-21T00:00:44.016Z,0
2018-01-21T00:02:29.124Z,0
2018-01-21T00:03:14.794Z,0
2018-01-21T00:04:14.454Z,0
2018-01-21T00:05:14.779Z,0
2018-01-21T00:06:29.419Z,0
2018-01-21T00:07:14.743Z,0
2018-01-21T00:08:14.779Z,0
2018-01-21T00:09:14.545Z,0
2018-01-21T00:10:14.907Z,0
2018-01-21T00:11:14.820Z,0
2018-01-21T00:12:29.797Z,0
2018-01-21T00:13:14.852Z,0
2018-01-21T00:14:14.598Z,0
2018-01-21T00:16:14.671Z,0
2018-01-21T00:17:14.646Z,0
2018-01-21T00:18:14.406Z,0
2018-01-21T00:19:15.252Z,0
2018-01-21T00:20:15.192Z,0
2018-01-21T00:21:14.709Z,0
2018-01-21T00:22:29.878Z,0
2018-01-21T00:23:44.080Z,0
2018-01-21T00:24:14.991Z,0
2018-01-21T00:25:15.274Z,0
2018-01-21T00:26:30.049Z,0
2018-01-21T00:27:15.283Z,0
2018-01-21T00:28:15.033Z,0
2018-01-21T00:29:15.371Z,0
2018-01-21T00:30:15.094Z,0
2018-01-21T00:31:14.578Z,0
2018-01-21T00:32:14.956Z,0
2018-01-21T00:33:15.479Z,0
2018-01-21T00:34:14.860Z,0
2018-01-21T00:35:15.429Z,0
2018-01-21T00:36:14.885Z,0
2018-01-21T00:37:14.885Z,0
2018-01-21T00:38:29.959Z,0
2018-01-21T00:39:15.454Z,0
2018-01-21T00:41:29.895Z,0
2018-01-21T00:43:29.912Z,0
2018-01-21T00:44:29.905Z,0
2018-01-21T00:45:15.264Z,0
2018-01-21T00:47:29.963Z,0
2018-01-21T00:49:15.562Z,0
2018-01-21T00:50:15.319Z,0
2018-01-21T00:51:14.843Z,0
2018-01-21T00:52:15.366Z,0
2018-01-21T00:53:15.352Z,0
2018-01-21T00:54:15.154Z,0
2018-01-21T00:56:15.416Z,0
2018-01-21T00:57:15.426Z,0
2018-01-21T00:58:15.703Z,0
2018-01-21T00:59:15.442Z,0
2018-01-21T01:01:15.202Z,0
2018-01-21T01:02:15.772Z,0
2018-01-21T01:03:45.086Z,0
2018-01-21T01:04:15.272Z,0
2018-01-21T01:05:15.517Z,0
2018-01-21T01:06:30.486Z,0
2018-01-21T01:07:15.675Z,0
2018-01-21T01:08:15.297Z,0
2018-01-21T01:09:15.081Z,0
2018-01-21T01:10:15.587Z,0
2018-01-21T01:11:15.352Z,0
2018-01-21T01:12:15.972Z,0
2018-01-21T01:13:15.855Z,0
2018-01-21T01:14:15.901Z,0
2018-01-21T01:15:15.174Z,0
2018-01-21T01:16:30.332Z,0
2018-01-21T01:17:15.902Z,0
2018-01-21T01:18:15.724Z,0
2018-01-21T01:19:45.430Z,0
2018-01-21T01:20:16.022Z,0
2018-01-21T01:21:15.747Z,0
2018-01-21T01:22:15.738Z,0
2018-01-21T01:23:15.480Z,0
2018-01-21T01:24:16.055Z,0
2018-01-21T01:25:15.869Z,0
2018-01-21T01:26:16.161Z,0
2018-01-21T01:27:16.039Z,0
2018-01-21T01:28:16.071Z,0
2018-01-21T01:29:15.605Z,0
2018-01-21T01:30:30.838Z,0
2018-01-21T01:31:15.584Z,0
2018-01-21T01:32:15.606Z,0
2018-01-21T01:33:15.917Z,0
2018-01-21T01:34:15.641Z,0
2018-01-21T01:35:45.271Z,0
2018-01-21T01:37:15.940Z,0
2018-01-21T01:38:15.795Z,0
2018-01-21T01:39:16.194Z,0
2018-01-21T01:40:15.465Z,0
2018-01-21T01:42:30.766Z,0
2018-01-21T01:43:15.757Z,0
2018-01-21T01:44:16.291Z,0
2018-01-21T01:45:15.788Z,0
2018-01-21T01:46:15.805Z,0
2018-01-21T01:47:45.420Z,0
2018-01-21T01:48:16.448Z,0
2018-01-21T01:49:16.347Z,0
2018-01-21T01:51:16.364Z,0
2018-01-21T01:52:15.914Z,0
2018-01-21T01:53:15.905Z,0
2018-01-21T01:54:16.153Z,0
2018-01-21T01:55:15.917Z,0
2018-01-21T01:56:16.206Z,0
2018-01-21T01:57:30.914Z,0
2018-01-21T01:58:16.221Z,0
2018-01-21T02:00:15.967Z,0
2018-01-21T02:01:31.180Z,0
2018-01-21T02:02:30.946Z,0
2018-01-21T02:03:16.245Z,0
2018-01-21T02:05:16.564Z,0
2018-01-21T02:06:16.310Z,0
2018-01-21T02:07:16.299Z,0
2018-01-21T02:08:16.601Z,0
2018-01-21T02:10:16.391Z,0
2018-01-21T02:11:16.395Z,0
2018-01-21T02:12:16.472Z,0
2018-01-21T02:13:16.623Z,0
2018-01-21T02:14:16.404Z,0
2018-01-21T02:15:16.428Z,0
2018-01-21T02:16:16.456Z,0
2018-01-21T02:17:16.790Z,0
2018-01-21T02:18:16.530Z,0
2018-01-21T02:19:16.472Z,0
2018-01-21T02:20:16.483Z,0
2018-01-21T02:21:46.135Z,0
2018-01-21T02:22:31.423Z,0
2018-01-21T02:23:16.294Z,0
2018-01-21T02:24:16.796Z,0
2018-01-21T02:25:31.231Z,0
2018-01-21T02:26:16.300Z,0
2018-01-21T02:27:16.820Z,0
2018-01-21T02:28:16.837Z,0
2018-01-21T02:29:16.894Z,0
2018-01-21T02:30:16.906Z,0
2018-01-21T02:31:16.628Z,0
2018-01-21T02:32:16.883Z,0
2018-01-21T02:33:31.573Z,0
2018-01-21T02:34:31.707Z,0
2018-01-21T02:35:16.694Z,0
2018-01-21T02:36:16.958Z,0
2018-01-21T02:37:16.815Z,0
2018-01-21T02:38:31.664Z,0
2018-01-21T02:39:16.783Z,0
2018-01-21T02:40:16.865Z,0
2018-01-21T02:41:16.769Z,0
2018-01-21T02:42:17.176Z,0
2018-01-21T02:43:31.495Z,0
2018-01-21T02:44:16.550Z,0
2018-01-21T02:45:17.113Z,0
2018-01-21T02:46:31.260Z,0
2018-01-21T02:47:17.131Z,0
2018-01-21T02:49:17.144Z,0
2018-01-21T02:50:17.163Z,0
2018-01-21T02:51:17.151Z,0
2018-01-21T02:52:16.943Z,0
2018-01-21T02:53:17.040Z,0
2018-01-21T02:54:31.849Z,0
2018-01-21T02:55:17.215Z,0
2018-01-21T02:56:17.214Z,0
2018-01-21T02:57:17.057Z,0
2018-01-21T02:58:16.742Z,0
2018-01-21T02:59:17.029Z,0
2018-01-21T03:00:31.694Z,0
2018-01-21T03:01:16.777Z,0
2018-01-21T03:02:16.883Z,0
2018-01-21T03:03:31.729Z,0
2018-01-21T03:04:17.300Z,0
2018-01-21T03:05:16.828Z,0
2018-01-21T03:06:32.041Z,0
2018-01-21T03:07:17.421Z,0
2018-01-21T03:08:17.124Z,0
2018-01-21T03:09:17.374Z,0
2018-01-21T03:10:32.047Z,0
2018-01-21T03:11:16.926Z,0
2018-01-21T03:12:17.012Z,0
2018-01-21T03:14:16.971Z,0
2018-01-21T03:15:17.462Z,0
2018-01-21T03:16:32.169Z,0
2018-01-21T03:17:16.993Z,0
2018-01-21T03:18:17.227Z,0
2018-01-21T03:19:17.530Z,0
2018-01-21T03:20:17.574Z,0
2018-01-21T03:21:17.323Z,0
2018-01-21T03:22:17.143Z,0
2018-01-21T03:23:17.125Z,0
2018-01-21T03:24:17.443Z,0
2018-01-21T03:25:46.680Z,0
2018-01-21T03:26:32.294Z,0
2018-01-21T03:27:17.407Z,0
2018-01-21T03:28:17.727Z,0
2018-01-21T03:29:32.090Z,0
2018-01-21T03:30:17.430Z,0
2018-01-21T03:31:17.658Z,0
2018-01-21T03:32:17.738Z,0
2018-01-21T03:33:17.771Z,0
2018-01-21T03:34:17.711Z,0
2018-01-21T03:35:16.994Z,0
2018-01-21T03:36:17.480Z,0
2018-01-21T03:37:17.744Z,0
2018-01-21T03:38:46.862Z,0
2018-01-21T03:39:17.771Z,0
2018-01-21T03:40:17.533Z,0
2018-01-21T03:41:17.431Z,0
2018-01-21T03:42:17.565Z,0
2018-01-21T03:43:17.921Z,0
2018-01-21T03:44:17.611Z,0
2018-01-21T03:45:17.672Z,0
2018-01-21T03:46:17.627Z,0
2018-01-21T03:47:17.908Z,0
2018-01-21T03:48:32.568Z,0
2018-01-21T03:49:17.878Z,0
2018-01-21T03:50:32.067Z,0
2018-01-21T03:51:32.596Z,0
2018-01-21T03:52:17.443Z,0
2018-01-21T03:53:17.951Z,0
2018-01-21T03:54:17.492Z,0
2018-01-21T03:55:17.583Z,0
2018-01-21T03:56:17.745Z,0
2018-01-21T03:57:32.674Z,0
2018-01-21T03:58:17.995Z,0
2018-01-21T03:59:18.045Z,0
2018-01-21T04:00:18.159Z,0
2018-01-21T04:01:32.492Z,0
2018-01-21T04:02:17.322Z,0
2018-01-21T04:03:18.115Z,0
2018-01-21T04:04:17.568Z,0
2018-01-21T04:05:32.547Z,0
2018-01-21T04:06:17.868Z,0
2018-01-21T04:07:18.232Z,0
2018-01-21T04:08:17.940Z,0
2018-01-21T04:09:32.602Z,0
2018-01-21T04:10:17.647Z,0
2018-01-21T04:11:17.771Z,0
2018-01-21T04:12:17.719Z,0
2018-01-21T04:14:17.985Z,0
2018-01-21T04:15:17.980Z,0
2018-01-21T04:16:17.503Z,0
2018-01-21T04:17:17.878Z,0
2018-01-21T04:18:18.021Z,0
2018-01-21T04:19:18.286Z,0
2018-01-21T04:20:17.776Z,0
2018-01-21T04:21:18.072Z,0
2018-01-21T04:22:18.452Z,0
2018-01-21T04:23:18.092Z,0
2018-01-21T04:24:33.069Z,0
2018-01-21T04:25:18.172Z,0
2018-01-21T04:26:17.874Z,0
2018-01-21T04:27:32.807Z,0
2018-01-21T04:28:17.904Z,0
2018-01-21T04:29:32.845Z,0
2018-01-21T04:30:18.221Z,0
2018-01-21T04:31:18.219Z,0
2018-01-21T04:32:18.358Z,0
2018-01-21T04:33:32.875Z,0
2018-01-21T04:34:18.097Z,0
2018-01-21T04:35:33.161Z,0
2018-01-21T04:36:17.756Z,0
2018-01-21T04:37:18.048Z,0
2018-01-21T04:38:18.300Z,0
2018-01-21T04:39:18.023Z,0
2018-01-21T04:40:18.438Z,0
2018-01-21T04:41:18.349Z,0
2018-01-21T04:42:18.576Z,0
2018-01-21T04:43:33.017Z,0
2018-01-21T04:44:33.294Z,0
2018-01-21T04:45:47.966Z,0
2018-01-21T04:46:33.191Z,0
2018-01-21T04:47:18.185Z,0
2018-01-21T04:49:18.792Z,0
2018-01-21T04:50:18.246Z,0
2018-01-21T04:51:32.885Z,0
2018-01-21T04:52:18.566Z,0
2018-01-21T04:53:18.767Z,0
2018-01-21T04:54:18.825Z,0
2018-01-21T04:55:18.798Z,0
2018-01-21T04:56:18.772Z,0
2018-01-21T04:57:33.201Z,0
2018-01-21T04:58:18.564Z,0
2018-01-21T04:59:18.301Z,0
2018-01-21T05:00:33.235Z,0
2018-01-21T05:01:18.591Z,0
2018-01-21T05:02:18.619Z,0
2018-01-21T05:03:18.909Z,0
2018-01-21T05:04:18.876Z,0
2018-01-21T05:06:18.653Z,0
2018-01-21T05:07:18.935Z,0
2018-01-21T05:09:18.698Z,0
2018-01-21T05:10:33.382Z,0
2018-01-21T05:11:19.027Z,0
2018-01-21T05:12:19.002Z,0
2018-01-21T05:13:18.752Z,0
2018-01-21T05:14:33.708Z,0
2018-01-21T05:15:33.687Z,0
2018-01-21T05:16:18.816Z,0
2018-01-21T05:17:18.830Z,0
2018-01-21T05:18:19.041Z,0
2018-01-21T05:19:19.119Z,0
2018-01-21T05:20:19.088Z,0
2018-01-21T05:21:18.630Z,0
2018-01-21T05:22:19.121Z,0
2018-01-21T05:23:33.561Z,0
2018-01-21T05:24:33.584Z,0
2018-01-21T05:25:19.161Z,0
2018-01-21T05:27:19.177Z,0
2018-01-21T05:28:18.940Z,0
2018-01-21T05:29:19.202Z,0
2018-01-21T05:30:19.315Z,0
2018-01-21T05:31:18.733Z,0
2018-01-21T05:32:33.932Z,0
2018-01-21T05:33:19.004Z,0
2018-01-21T05:34:19.018Z,0
2018-01-21T05:35:19.259Z,0
2018-01-21T05:36:33.975Z,0
2018-01-21T05:37:19.335Z,0
2018-01-21T05:38:19.063Z,0
2018-01-21T05:39:19.365Z,0
2018-01-21T05:40:19.367Z,0
2018-01-21T05:41:19.125Z,0
2018-01-21T05:42:19.125Z,0
2018-01-21T05:43:19.179Z,0
2018-01-21T05:44:18.921Z,0
2018-01-21T05:45:19.162Z,0
2018-01-21T05:46:19.446Z,0
2018-01-21T05:48:34.245Z,0
2018-01-21T05:49:19.598Z,0
2018-01-21T05:50:19.469Z,0
2018-01-21T05:52:19.501Z,0
2018-01-21T05:53:19.522Z,0
2018-01-21T05:54:19.304Z,0
2018-01-21T05:55:19.550Z,0
2018-01-21T05:56:19.069Z,0
2018-01-21T05:57:19.347Z,0
2018-01-21T05:58:19.317Z,0
2018-01-21T05:59:19.705Z,0
2018-01-21T06:00:19.596Z,0
2018-01-21T06:01:19.105Z,0
2018-01-21T06:02:19.266Z,0
2018-01-21T06:03:19.629Z,0
2018-01-21T06:04:34.102Z,0
2018-01-21T06:05:19.698Z,0
2018-01-21T06:06:19.434Z,0
2018-01-21T06:07:19.209Z,0
2018-01-21T06:08:19.216Z,0
2018-01-21T06:09:19.576Z,0
2018-01-21T06:10:34.152Z,0
2018-01-21T06:11:19.251Z,0
2018-01-21T06:12:34.457Z,0
2018-01-21T06:13:34.060Z,0
2018-01-21T06:14:19.300Z,0
2018-01-21T06:15:34.493Z,0
2018-01-21T06:16:19.834Z,0
2018-01-21T06:17:19.688Z,0
2018-01-21T06:19:19.604Z,0
2018-01-21T06:20:34.541Z,0
2018-01-21T06:21:19.638Z,0
2018-01-21T06:22:19.653Z,0
2018-01-21T06:23:19.518Z,0
2018-01-21T06:24:34.351Z,0
2018-01-21T06:25:34.352Z,0
2018-01-21T06:26:19.971Z,0
2018-01-21T06:27:19.992Z,0
2018-01-21T06:28:34.399Z,0
2018-01-21T06:29:20.006Z,0
2018-01-21T06:30:19.756Z,0
2018-01-21T06:31:34.716Z,0
2018-01-21T06:32:19.784Z,0
2018-01-21T06:33:19.537Z,0
2018-01-21T06:34:20.072Z,0
2018-01-21T06:35:34.734Z,0
2018-01-21T06:36:19.830Z,0
2018-01-21T06:37:20.103Z,0
2018-01-21T06:39:19.850Z,0
2018-01-21T06:40:34.814Z,0
2018-01-21T06:41:19.392Z,0
2018-01-21T06:42:20.236Z,0
2018-01-21T06:43:19.919Z,0
2018-01-21T06:45:49.301Z,0
2018-01-21T06:46:34.635Z,0
2018-01-21T06:47:19.952Z,0
2018-01-21T06:48:20.236Z,0
2018-01-21T06:49:20.015Z,0
2018-01-21T06:50:20.170Z,0
2018-01-21T06:51:20.253Z,0
2018-01-21T06:52:34.716Z,0
2018-01-21T06:53:20.422Z,0
2018-01-21T06:54:20.436Z,0
2018-01-21T06:56:20.337Z,0
2018-01-21T06:57:20.363Z,0
2018-01-21T06:58:19.631Z,0
2018-01-21T06:59:34.909Z,0
2018-01-21T07:00:34.823Z,0
2018-01-21T07:01:19.916Z,0
2018-01-21T07:02:20.463Z,0
2018-01-21T07:03:20.553Z,0
2018-01-21T07:04:20.193Z,0
2018-01-21T07:05:20.484Z,0
2018-01-21T07:06:34.899Z,0
2018-01-21T07:07:35.185Z,0
2018-01-21T07:08:20.254Z,0
2018-01-21T07:09:20.270Z,0
2018-01-21T07:10:20.029Z,0
2018-01-21T07:11:20.033Z,0
2018-01-21T07:12:20.070Z,0
2018-01-21T07:13:20.609Z,0
2018-01-21T07:14:20.304Z,0
2018-01-21T07:15:20.185Z,0
2018-01-21T07:16:20.603Z,0
2018-01-21T07:17:35.312Z,0
2018-01-21T07:18:20.381Z,0
2018-01-21T07:19:20.411Z,0
2018-01-21T07:20:20.653Z,0
2018-01-21T07:21:20.498Z,0
2018-01-21T07:22:20.461Z,0
2018-01-21T07:23:50.050Z,0
2018-01-21T07:24:35.401Z,0
2018-01-21T07:25:20.705Z,0
2018-01-21T07:26:20.502Z,0
2018-01-21T07:28:20.757Z,0
2018-01-21T07:29:35.432Z,0
2018-01-21T07:30:20.549Z,0
2018-01-21T07:31:20.818Z,0
2018-01-21T07:32:20.797Z,0
2018-01-21T07:33:35.505Z,0
2018-01-21T07:34:20.588Z,0
2018-01-21T07:36:20.386Z,0
2018-01-21T07:38:20.895Z,0
2018-01-21T07:39:35.592Z,5
2018-01-21T07:40:20.916Z,5
2018-01-21T07:41:20.671Z,5
2018-01-21T07:42:20.927Z,5
2018-01-21T07:43:20.993Z,5
2018-01-21T07:44:35.736Z,5
2018-01-21T07:45:20.737Z,5
2018-01-21T07:46:20.734Z,5
2018-01-21T07:47:20.811Z,5
2018-01-21T07:48:20.498Z,5
2018-01-21T07:49:20.759Z,5
2018-01-21T07:50:21.032Z,5
2018-01-21T07:51:20.848Z,5
2018-01-21T07:53:20.847Z,5
2018-01-21T07:54:21.207Z,5
2018-01-21T07:55:35.574Z,5
2018-01-21T07:56:20.888Z,5
2018-01-21T07:57:35.562Z,5
2018-01-21T07:58:20.931Z,5
2018-01-21T07:59:21.028Z,5
2018-01-21T08:00:21.193Z,5
2018-01-21T08:01:21.169Z,5
2018-01-21T08:02:20.708Z,5
2018-01-21T08:03:35.938Z,5
2018-01-21T08:04:21.284Z,5
2018-01-21T08:05:21.264Z,10
2018-01-21T08:06:20.737Z,10
2018-01-21T08:07:21.026Z,10
2018-01-21T08:08:21.263Z,10
2018-01-21T08:09:21.280Z,10
2018-01-21T08:10:36.013Z,10
2018-01-21T08:11:20.846Z,10
2018-01-21T08:12:21.088Z,10
2018-01-21T08:13:21.085Z,10
2018-01-21T08:14:36.141Z,10
2018-01-21T08:15:20.605Z,10
2018-01-21T08:16:20.923Z,10
2018-01-21T08:17:36.105Z,10
2018-01-21T08:18:35.594Z,10
2018-01-21T08:20:36.163Z,10
2018-01-21T08:21:21.227Z,10
2018-01-21T08:22:21.241Z,10
2018-01-21T08:23:21.605Z,10
2018-01-21T08:24:21.245Z,15
2018-01-21T08:25:21.523Z,15
2018-01-21T08:26:21.546Z,15
2018-01-21T08:27:21.318Z,15
2018-01-21T08:28:21.357Z,15
2018-01-21T08:29:21.541Z,15
2018-01-21T08:30:36.291Z,15
2018-01-21T08:31:21.085Z,15
2018-01-21T08:32:21.369Z,15
2018-01-21T08:33:21.637Z,15
2018-01-21T08:34:21.659Z,15
2018-01-21T08:35:21.721Z,15
2018-01-21T08:36:21.394Z,15
2018-01-21T08:37:21.696Z,15
2018-01-21T08:38:21.718Z,15
2018-01-21T08:39:36.362Z,15
2018-01-21T08:40:21.479Z,15
2018-01-21T08:41:21.492Z,15
2018-01-21T08:42:36.170Z,15
2018-01-21T08:43:21.790Z,20
2018-01-21T08:44:21.774Z,20
2018-01-21T08:45:21.794Z,20
2018-01-21T08:46:21.833Z,20
2018-01-21T08:47:21.538Z,20
2018-01-21T08:48:21.801Z,20
2018-01-21T08:49:21.591Z,20
2018-01-21T08:50:21.860Z,20
2018-01-21T08:51:36.564Z,20
2018-01-21T08:52:21.869Z,20
2018-01-21T08:53:21.886Z,20
2018-01-21T08:54:21.915Z,20
2018-01-21T08:55:21.916Z,20
2018-01-21T08:56:21.701Z,20
2018-01-21T08:57:21.947Z,20
2018-01-21T08:59:22.064Z,20
2018-01-21T09:00:21.826Z,25
2018-01-21T09:01:22.012Z,25
2018-01-21T09:02:22.105Z,20
2018-01-21T09:03:36.679Z,20
2018-01-21T09:04:21.545Z,20
2018-01-21T09:05:22.067Z,20
2018-01-21T09:06:21.560Z,20
2018-01-21T09:07:21.868Z,20
2018-01-21T09:08:36.518Z,20
2018-01-21T09:09:36.529Z,20
2018-01-21T09:10:36.776Z,15
2018-01-21T09:11:22.124Z,15
2018-01-21T09:13:22.200Z,20
2018-01-21T09:14:36.907Z,20
2018-01-21T09:15:22.200Z,20
2018-01-21T09:16:21.944Z,20
2018-01-21T09:17:22.215Z,20
2018-01-21T09:18:21.984Z,20
2018-01-21T09:19:22.244Z,20
2018-01-21T09:20:36.683Z,20
2018-01-21T09:21:37.048Z,20
2018-01-21T09:22:36.689Z,20
2018-01-21T09:23:22.299Z,20
2018-01-21T09:24:22.406Z,20
2018-01-21T09:25:37.011Z,20
2018-01-21T09:26:22.309Z,20
2018-01-21T09:27:22.370Z,20
2018-01-21T09:29:22.394Z,20
2018-01-21T09:30:37.047Z,20
2018-01-21T09:31:22.248Z,20
2018-01-21T09:32:22.146Z,20
2018-01-21T09:33:22.425Z,20
2018-01-21T09:34:22.452Z,20
2018-01-21T09:35:22.643Z,15
2018-01-21T09:36:22.232Z,15
2018-01-21T09:37:22.479Z,15
2018-01-21T09:38:22.238Z,15
2018-01-21T09:39:22.509Z,15
2018-01-21T09:40:36.955Z,15
2018-01-21T09:41:22.309Z,15
2018-01-21T09:42:22.659Z,15
2018-01-21T09:43:22.051Z,15
2018-01-21T09:44:22.071Z,15
2018-01-21T09:45:37.268Z,15
2018-01-21T09:46:37.040Z,15
2018-01-21T09:47:22.364Z,15
2018-01-21T09:48:22.744Z,20
2018-01-21T09:49:22.666Z,20
2018-01-21T09:50:22.473Z,20
2018-01-21T09:51:22.677Z,20
2018-01-21T09:52:22.665Z,20
2018-01-21T09:53:37.126Z,20
2018-01-21T09:54:37.404Z,20
2018-01-21T09:55:22.727Z,20
2018-01-21T09:56:22.737Z,20
2018-01-21T09:57:22.837Z,20
2018-01-21T09:58:22.551Z,20
2018-01-21T09:59:37.476Z,20
2018-01-21T10:00:37.455Z,20
2018-01-21T10:01:22.829Z,20
2018-01-21T10:02:22.850Z,20
2018-01-21T10:03:37.523Z,20
2018-01-21T10:04:22.705Z,20
2018-01-21T10:05:22.837Z,20
2018-01-21T10:06:22.878Z,20
2018-01-21T10:07:22.866Z,20
2018-01-21T10:09:22.942Z,20
2018-01-21T10:10:22.939Z,20
2018-01-21T10:11:22.682Z,20
2018-01-21T10:12:22.989Z,20
2018-01-21T10:13:22.990Z,20
2018-01-21T10:14:22.740Z,20
2018-01-21T10:15:23.007Z,20
2018-01-21T10:16:23.000Z,20
2018-01-21T10:17:37.687Z,20
2018-01-21T10:18:23.037Z,20
2018-01-21T10:19:22.826Z,15
2018-01-21T10:20:22.819Z,15
2018-01-21T10:21:37.531Z,15
2018-01-21T10:22:23.208Z,15
2018-01-21T10:23:22.859Z,15
2018-01-21T10:24:22.921Z,15
2018-01-21T10:25:22.864Z,15
2018-01-21T10:26:23.144Z,15
2018-01-21T10:27:23.153Z,20
2018-01-21T10:28:22.957Z,20
2018-01-21T10:29:22.952Z,20
2018-01-21T10:30:23.224Z,20
2018-01-21T10:32:22.964Z,20
2018-01-21T10:33:37.930Z,20
2018-01-21T10:34:37.441Z,20
2018-01-21T10:35:23.291Z,20
2018-01-21T10:36:23.033Z,20
2018-01-21T10:37:23.315Z,20
2018-01-21T10:38:23.432Z,20
2018-01-21T10:39:23.363Z,20
2018-01-21T10:40:23.340Z,20
2018-01-21T10:42:23.359Z,20
2018-01-21T10:43:23.386Z,20
2018-01-21T10:44:23.424Z,20
2018-01-21T10:45:52.755Z,20
2018-01-21T10:46:23.479Z,20
2018-01-21T10:47:23.507Z,20
2018-01-21T10:48:52.786Z,20
2018-01-21T10:49:37.909Z,20
2018-01-21T10:51:23.229Z,20
2018-01-21T10:52:23.267Z,20
2018-01-21T10:54:23.660Z,20
2018-01-21T10:55:23.537Z,20
2018-01-21T10:56:23.555Z,20
2018-01-21T10:57:23.564Z,20
2018-01-21T10:58:37.752Z,25
2018-01-21T10:59:23.600Z,25
2018-01-21T11:00:23.141Z,25
2018-01-21T11:01:23.490Z,25
2018-01-21T11:02:38.074Z,25
2018-01-21T11:03:23.658Z,30
2018-01-21T11:04:38.349Z,30
2018-01-21T11:07:23.719Z,35
2018-01-21T11:08:23.742Z,35
2018-01-21T11:09:38.190Z,35
2018-01-21T11:10:23.742Z,35
2018-01-21T11:11:23.783Z,35
2018-01-21T11:12:23.784Z,35
2018-01-21T11:13:23.529Z,30
2018-01-21T11:14:23.583Z,30
2018-01-21T11:15:23.796Z,30
2018-01-21T11:16:23.585Z,25
2018-01-21T11:17:38.412Z,25
2018-01-21T11:18:38.061Z,25
2018-01-21T11:19:23.693Z,25
2018-01-21T11:21:23.901Z,25
2018-01-21T11:22:23.671Z,25
2018-01-21T11:23:23.962Z,25
2018-01-21T11:24:23.752Z,25
2018-01-21T11:25:24.028Z,25
2018-01-21T11:26:23.985Z,25
2018-01-21T11:27:23.770Z,25
2018-01-21T11:28:24.010Z,25
2018-01-21T11:29:38.457Z,25
2018-01-21T11:30:23.789Z,25
2018-01-21T11:31:23.804Z,25
2018-01-21T11:32:38.745Z,25
2018-01-21T11:33:24.088Z,30
2018-01-21T11:34:24.094Z,30
2018-01-21T11:35:38.777Z,30
2018-01-21T11:36:24.215Z,30
2018-01-21T11:37:24.108Z,30
2018-01-21T11:38:23.879Z,35
2018-01-21T11:39:24.201Z,35
2018-01-21T11:40:24.197Z,35
2018-01-21T11:41:24.288Z,35
2018-01-21T11:42:24.216Z,35
2018-01-21T11:43:24.200Z,35
2018-01-21T11:44:24.219Z,35
2018-01-21T11:45:24.272Z,35
2018-01-21T11:47:24.350Z,35
2018-01-21T11:48:38.987Z,35
2018-01-21T11:49:39.072Z,35
2018-01-21T11:50:24.498Z,35
2018-01-21T11:52:39.082Z,30
2018-01-21T11:53:24.427Z,30
2018-01-21T11:54:24.161Z,30
2018-01-21T11:55:24.430Z,30
2018-01-21T11:56:24.161Z,30
2018-01-21T11:57:24.433Z,30
2018-01-21T11:58:24.476Z,30
2018-01-21T11:59:24.194Z,30
2018-01-21T12:00:24.227Z,30
2018-01-21T12:01:23.959Z,30
2018-01-21T12:02:39.213Z,25
2018-01-21T12:03:24.109Z,25
2018-01-21T12:04:24.275Z,25
2018-01-21T12:05:24.290Z,25
2018-01-21T12:07:24.094Z,30
2018-01-21T12:08:39.009Z,30
2018-01-21T12:09:24.364Z,30
2018-01-21T12:10:24.383Z,30
2018-01-21T12:11:24.596Z,30
2018-01-21T12:12:24.653Z,30
2018-01-21T12:13:24.635Z,30
2018-01-21T12:14:24.507Z,25
2018-01-21T12:15:39.325Z,25
2018-01-21T12:16:24.445Z,25
2018-01-21T12:17:24.443Z,25
2018-01-21T12:19:24.757Z,25
2018-01-21T12:20:24.701Z,25
2018-01-21T12:21:24.746Z,25
2018-01-21T12:22:24.760Z,25
2018-01-21T12:23:24.554Z,25
2018-01-21T12:24:39.537Z,25
2018-01-21T12:25:39.247Z,25
2018-01-21T12:27:24.946Z,25
2018-01-21T12:28:39.266Z,25
2018-01-21T12:29:24.865Z,25
2018-01-21T12:30:24.721Z,25
2018-01-21T12:31:24.915Z,25
2018-01-21T12:32:24.915Z,25
2018-01-21T12:33:24.945Z,25
2018-01-21T12:34:24.704Z,25
2018-01-21T12:35:24.802Z,25
2018-01-21T12:36:24.688Z,20
2018-01-21T12:37:24.457Z,20
2018-01-21T12:38:39.668Z,20
2018-01-21T12:39:24.752Z,20
2018-01-21T12:40:39.465Z,20
2018-01-21T12:41:25.039Z,20
2018-01-21T12:42:25.050Z,20
2018-01-21T12:43:25.041Z,20
2018-01-21T12:44:25.056Z,20
2018-01-21T12:45:24.925Z,20
2018-01-21T12:46:24.846Z,20
2018-01-21T12:47:24.902Z,20
2018-01-21T12:48:24.895Z,20
2018-01-21T12:49:25.146Z,20
2018-01-21T12:50:25.035Z,20
2018-01-21T12:51:25.182Z,20
2018-01-21T12:52:25.163Z,20
2018-01-21T12:53:25.219Z,20
2018-01-21T12:54:25.198Z,20
2018-01-21T12:55:40.011Z,20
2018-01-21T12:56:25.239Z,20
2018-01-21T12:57:24.979Z,20
2018-01-21T12:58:25.033Z,20
2018-01-21T12:59:25.254Z,20
2018-01-21T13:00:25.059Z,20
2018-01-21T13:01:25.316Z,20
2018-01-21T13:02:25.080Z,20
2018-01-21T13:03:25.364Z,20
2018-01-21T13:04:40.048Z,20
2018-01-21T13:05:25.363Z,20
2018-01-21T13:06:24.863Z,20
2018-01-21T13:07:24.872Z,20
2018-01-21T13:08:25.173Z,20
2018-01-21T13:09:25.434Z,20
2018-01-21T13:10:25.165Z,20
2018-01-21T13:11:25.225Z,20
2018-01-21T13:12:25.320Z,20
2018-01-21T13:13:25.515Z,20
2018-01-21T13:14:25.475Z,20
2018-01-21T13:15:24.985Z,20
2018-01-21T13:16:25.120Z,20
2018-01-21T13:17:25.566Z,20
2018-01-21T13:18:25.542Z,15
2018-01-21T13:19:25.323Z,15
2018-01-21T13:20:25.340Z,15
2018-01-21T13:21:25.629Z,15
2018-01-21T13:22:25.603Z,15
2018-01-21T13:23:25.345Z,15
2018-01-21T13:24:25.650Z,15
2018-01-21T13:25:25.629Z,15
2018-01-21T13:26:25.803Z,15
2018-01-21T13:27:40.328Z,15
2018-01-21T13:28:25.664Z,15
2018-01-21T13:30:25.692Z,20
2018-01-21T13:31:25.827Z,20
2018-01-21T13:33:25.519Z,15
2018-01-21T13:34:25.814Z,15
2018-01-21T13:35:25.531Z,15
2018-01-21T13:36:25.532Z,15
2018-01-21T13:37:40.578Z,15
2018-01-21T13:38:25.844Z,20
2018-01-21T13:39:25.851Z,20
2018-01-21T13:40:25.877Z,20
2018-01-21T13:41:25.856Z,25
2018-01-21T13:42:25.651Z,25
2018-01-21T13:43:40.699Z,25
2018-01-21T13:44:26.014Z,25
2018-01-21T13:45:25.933Z,25
2018-01-21T13:46:25.705Z,25
2018-01-21T13:47:25.700Z,25
2018-01-21T13:48:25.718Z,25
2018-01-21T13:49:25.990Z,25
2018-01-21T13:50:25.747Z,20
2018-01-21T13:51:40.438Z,20
2018-01-21T13:52:40.679Z,20
2018-01-21T13:53:40.479Z,20
2018-01-21T13:54:26.014Z,20
2018-01-21T13:56:25.344Z,20
2018-01-21T13:57:26.096Z,20
2018-01-21T13:59:40.802Z,20
2018-01-21T14:00:40.545Z,20
2018-01-21T14:01:25.911Z,20
2018-01-21T14:02:26.291Z,20
2018-01-21T14:03:25.693Z,20
2018-01-21T14:04:26.190Z,20
2018-01-21T14:05:26.252Z,20
2018-01-21T14:07:26.261Z,15
2018-01-21T14:08:25.772Z,15
2018-01-21T14:09:40.929Z,15
2018-01-21T14:10:26.062Z,15
2018-01-21T14:11:26.296Z,15
2018-01-21T14:12:26.136Z,10
2018-01-21T14:13:40.774Z,10
2018-01-21T14:14:26.335Z,10
2018-01-21T14:16:26.365Z,10
2018-01-21T14:17:26.393Z,10
2018-01-21T14:18:41.057Z,10
2018-01-21T14:19:26.139Z,10
2018-01-21T14:20:26.464Z,10
2018-01-21T14:21:26.171Z,10
2018-01-21T14:22:26.231Z,10
2018-01-21T14:23:26.471Z,10
2018-01-21T14:24:26.234Z,10
2018-01-21T14:25:26.530Z,10
2018-01-21T14:26:26.523Z,10
2018-01-21T14:27:26.274Z,10
2018-01-21T14:28:26.276Z,10
2018-01-21T14:29:26.299Z,10
2018-01-21T14:30:41.270Z,10
2018-01-21T14:31:26.327Z,10
2018-01-21T14:32:26.107Z,10
2018-01-21T14:33:26.349Z,10
2018-01-21T14:34:26.648Z,5
2018-01-21T14:35:26.667Z,5
2018-01-21T14:36:26.627Z,5
2018-01-21T14:37:26.646Z,5
2018-01-21T14:39:26.248Z,5
2018-01-21T14:40:55.809Z,5
2018-01-21T14:41:26.465Z,5
2018-01-21T14:42:26.246Z,5
2018-01-21T14:43:41.449Z,5
2018-01-21T14:44:26.767Z,5
2018-01-21T14:45:26.560Z,5
2018-01-21T14:46:26.841Z,5
2018-01-21T14:47:26.591Z,5
2018-01-21T14:48:26.881Z,5
2018-01-21T14:49:26.591Z,5
2018-01-21T14:50:26.347Z,5
2018-01-21T14:51:26.622Z,5
2018-01-21T14:52:26.723Z,5
2018-01-21T14:53:26.887Z,5
2018-01-21T14:54:26.396Z,5
2018-01-21T14:55:26.792Z,5
2018-01-21T14:56:26.972Z,5
2018-01-21T14:57:26.443Z,5
2018-01-21T14:59:26.716Z,0
2018-01-21T15:00:26.855Z,0
2018-01-21T15:01:26.850Z,0
2018-01-21T15:02:41.429Z,0
2018-01-21T15:03:26.782Z,0
2018-01-21T15:04:26.285Z,0
2018-01-21T15:05:27.053Z,0
2018-01-21T15:07:27.086Z,0
2018-01-21T15:08:26.900Z,0
2018-01-21T15:09:26.912Z,0
2018-01-21T15:10:27.163Z,0
2018-01-21T15:11:27.150Z,0
2018-01-21T15:13:41.874Z,0
2018-01-21T15:14:41.893Z,0
2018-01-21T15:15:27.224Z,0
2018-01-21T15:16:27.226Z,0
2018-01-21T15:18:41.952Z,0
2018-01-21T15:19:41.953Z,0
2018-01-21T15:20:27.270Z,0
2018-01-21T15:21:27.176Z,0
2018-01-21T15:22:26.902Z,0
2018-01-21T15:23:27.063Z,0
2018-01-21T15:24:27.059Z,0
2018-01-21T15:25:27.111Z,0
2018-01-21T15:26:27.414Z,0
2018-01-21T15:27:27.374Z,0
2018-01-21T15:28:27.132Z,0
2018-01-21T15:29:26.912Z,0
2018-01-21T15:30:27.012Z,0
2018-01-21T15:31:27.449Z,0
2018-01-21T15:32:27.459Z,0